Time;durP1;ratioP1;P1;durP2;ratioP2;P2;SDS_P1;SDS_P2;PMS_P1;PMS_P2;Temp;Humidity;BMP_temperature;BMP_pressure;BME280_temperature;BME280_humidity;BME280_pressure;Samples;Min_cycle;Max_cycle;Signal;HPM_P1;HPM_P2
2022/08/01 00:00:38;;;;;;;9.67;8.87;;;19.30;99.90;;;;;;5090043;28;20393;-71
2022/08/01 00:03:04;;;;;;;10.60;9.70;;;19.30;99.90;;;;;;5088232;28;20473;-71
2022/08/01 00:05:29;;;;;;;10.32;9.40;;;19.20;99.90;;;;;;5087077;28;20620;-72
2022/08/01 00:07:55;;;;;;;10.10;9.20;;;19.30;99.90;;;;;;5086733;28;20424;-71
2022/08/01 00:10:20;;;;;;;10.80;9.70;;;19.30;99.90;;;;;;5084327;28;20406;-72
2022/08/01 00:12:46;;;;;;;9.40;8.60;;;19.30;99.90;;;;;;5086052;28;20680;-72
2022/08/01 00:15:15;;;;;;;10.00;8.98;;;19.30;99.90;;;;;;5087358;28;20524;-71
2022/08/01 00:17:41;;;;;;;9.18;8.38;;;19.30;99.90;;;;;;5088905;28;20694;-71
2022/08/01 00:20:09;;;;;;;9.40;8.50;;;19.20;99.90;;;;;;5089751;28;20451;-72
2022/08/01 00:22:35;;;;;;;9.60;8.70;;;19.10;99.90;;;;;;5090100;28;20441;-72
2022/08/01 00:25:01;;;;;;;9.30;8.35;;;19.20;99.90;;;;;;5087204;28;20597;-72
2022/08/01 00:27:27;;;;;;;9.65;8.38;;;19.20;99.90;;;;;;5088441;28;20530;-72
2022/08/01 00:29:53;;;;;;;9.07;8.17;;;19.20;99.90;;;;;;5087032;28;20764;-72
2022/08/01 00:32:18;;;;;;;9.00;8.10;;;19.10;99.90;;;;;;5087108;28;20401;-72
2022/08/01 00:34:44;;;;;;;8.77;7.97;;;19.10;99.90;;;;;;5086733;28;20408;-72
2022/08/01 00:37:10;;;;;;;8.93;8.20;;;19.10;99.90;;;;;;5085547;28;20386;-72
2022/08/01 00:39:35;;;;;;;9.40;8.40;;;19.10;99.90;;;;;;5087542;28;20389;-72
2022/08/01 00:42:07;;;;;;;9.50;8.57;;;19.10;99.90;;;;;;5089211;28;20378;-73
2022/08/01 00:44:33;;;;;;;9.20;8.37;;;19.10;99.90;;;;;;5088478;28;20409;-73
2022/08/01 00:46:59;;;;;;;9.30;8.40;;;19.10;99.90;;;;;;5089840;28;20369;-72
2022/08/01 00:49:25;;;;;;;9.80;8.80;;;19.10;99.90;;;;;;5089801;28;20397;-72
2022/08/01 00:51:51;;;;;;;10.60;9.50;;;19.10;99.90;;;;;;5091685;28;20393;-72
2022/08/01 00:54:16;;;;;;;11.27;9.27;;;19.00;99.90;;;;;;5089632;28;20397;-73
2022/08/01 00:56:42;;;;;;;10.75;9.65;;;19.00;99.90;;;;;;5088741;28;20390;-73
2022/08/01 00:59:08;;;;;;;11.15;9.90;;;19.00;99.90;;;;;;5088496;28;20504;-74
2022/08/01 01:01:34;;;;;;;10.32;9.32;;;19.00;99.90;;;;;;5093906;28;20374;-73
2022/08/01 01:04:00;;;;;;;10.15;8.93;;;19.00;99.90;;;;;;5094277;28;20400;-72
2022/08/01 01:06:29;;;;;;;9.10;8.20;;;19.00;99.90;;;;;;5094139;28;20548;-72
2022/08/01 01:09:15;;;;;;;9.00;8.13;;;19.00;99.90;;;;;;5094074;28;20429;-72
2022/08/01 01:12:03;;;;;;;7.40;6.70;;;19.00;99.90;;;;;;5092590;28;20382;-72
2022/08/01 01:14:49;;;;;;;8.45;7.65;;;19.10;99.90;;;;;;5085094;28;20393;-72
2022/08/01 01:17:19;;;;;;;8.38;7.20;;;19.10;99.90;;;;;;5061574;28;20436;-72
2022/08/01 01:19:52;;;;;;;7.88;7.13;;;19.00;99.90;;;;;;5090249;28;20374;-72
2022/08/01 01:22:35;;;;;;;6.65;6.05;;;19.00;99.90;;;;;;5090765;28;20680;-72
2022/08/01 01:25:38;;;;;;;7.68;6.97;;;19.00;99.90;;;;;;5093021;28;20760;-73
2022/08/01 01:28:45;;;;;;;7.80;7.10;;;19.00;99.90;;;;;;5092881;28;20385;-72
2022/08/01 01:31:12;;;;;;;7.18;6.43;;;19.00;99.90;;;;;;5094165;28;20389;-72
2022/08/01 01:33:41;;;;;;;7.60;6.90;;;19.00;99.90;;;;;;5092832;28;20425;-73
2022/08/01 01:36:09;;;;;;;7.90;7.10;;;19.00;99.90;;;;;;5092645;28;20389;-72
2022/08/01 01:38:42;;;;;;;9.60;7.57;;;19.00;99.90;;;;;;5092700;28;20401;-72
2022/08/01 01:41:10;;;;;;;10.15;8.40;;;18.90;99.90;;;;;;5093689;28;20378;-72
2022/08/01 01:43:37;;;;;;;10.27;7.97;;;18.90;99.90;;;;;;5093557;28;20381;-73
2022/08/01 01:46:04;;;;;;;9.40;8.50;;;18.90;99.90;;;;;;5091943;28;20512;-72
2022/08/01 01:48:32;;;;;;;9.65;8.75;;;19.00;99.90;;;;;;5092122;28;20397;-72
2022/08/01 01:50:59;;;;;;;8.93;8.02;;;18.90;99.90;;;;;;5095165;28;20655;-72
2022/08/01 01:53:27;;;;;;;9.63;8.35;;;18.90;99.90;;;;;;5093746;28;20389;-72
2022/08/01 01:55:55;;;;;;;8.90;8.00;;;18.90;99.90;;;;;;5094016;28;20479;-72
2022/08/01 01:58:23;;;;;;;10.32;8.45;;;19.00;99.90;;;;;;5093522;28;20707;-72
2022/08/01 02:00:51;;;;;;;10.38;8.55;;;18.90;99.90;;;;;;5094294;28;20550;-72
2022/08/01 02:03:18;;;;;;;9.80;8.90;;;19.00;99.90;;;;;;5096753;28;20469;-72
2022/08/01 02:05:44;;;;;;;11.60;9.23;;;18.90;99.90;;;;;;5094620;28;20424;-72
2022/08/01 02:08:11;;;;;;;10.27;9.27;;;18.90;99.90;;;;;;5094309;28;20413;-72
2022/08/01 02:10:38;;;;;;;10.68;9.30;;;18.90;99.90;;;;;;5093269;28;20402;-72
2022/08/01 02:13:06;;;;;;;10.95;8.55;;;18.80;99.90;;;;;;5091501;28;20745;-72
2022/08/01 02:15:38;;;;;;;10.73;9.07;;;18.90;99.90;;;;;;5090423;28;20436;-72
2022/08/01 02:18:05;;;;;;;9.00;8.10;;;18.80;99.90;;;;;;5091379;28;20394;-72
2022/08/01 02:20:34;;;;;;;14.00;9.80;;;18.90;99.90;;;;;;5090396;28;20434;-72
2022/08/01 02:23:12;;;;;;;9.23;8.20;;;18.80;99.90;;;;;;5091917;28;20377;-72
2022/08/01 02:26:07;;;;;;;9.70;8.75;;;18.80;99.90;;;;;;5090955;28;20924;-72
2022/08/01 02:28:56;;;;;;;9.07;7.10;;;18.70;99.90;;;;;;5090003;28;20374;-72
2022/08/01 02:31:22;;;;;;;8.18;7.38;;;18.70;99.90;;;;;;5092160;28;20398;-72
2022/08/01 02:34:05;;;;;;;10.23;7.77;;;18.70;99.90;;;;;;5093463;28;20410;-72
2022/08/01 02:36:33;;;;;;;6.95;6.25;;;18.70;99.90;;;;;;5092805;28;20685;-72
2022/08/01 02:39:01;;;;;;;7.22;6.53;;;18.70;99.90;;;;;;5091543;28;20410;-72
2022/08/01 02:41:28;;;;;;;8.57;6.68;;;18.70;99.90;;;;;;5093227;28;20854;-72
2022/08/01 02:43:59;;;;;;;8.05;6.18;;;18.70;99.90;;;;;;5089718;28;20378;-72
2022/08/01 02:46:48;;;;;;;8.55;6.47;;;18.80;99.90;;;;;;5091291;28;20382;-72
2022/08/01 02:49:15;;;;;;;7.45;6.25;;;18.70;99.90;;;;;;5089786;28;20385;-72
2022/08/01 02:51:42;;;;;;;6.73;5.80;;;18.70;99.90;;;;;;5090675;28;20642;-72
2022/08/01 02:54:10;;;;;;;8.63;6.10;;;18.70;99.90;;;;;;5090378;28;20493;-72
2022/08/01 02:56:36;;;;;;;8.38;5.35;;;18.70;99.90;;;;;;5091924;28;20710;-72
2022/08/01 02:59:08;;;;;;;5.80;5.15;;;18.80;99.90;;;;;;5092672;28;20401;-72
2022/08/01 03:01:35;;;;;;;6.15;5.57;;;18.80;99.90;;;;;;5091214;28;20450;-72
2022/08/01 03:04:03;;;;;;;7.18;6.05;;;18.80;99.90;;;;;;5091743;28;20374;-72
2022/08/01 03:06:31;;;;;;;7.38;5.97;;;18.70;99.90;;;;;;5091842;28;20685;-72
2022/08/01 03:08:58;;;;;;;8.65;6.20;;;18.70;99.90;;;;;;5089574;28;20409;-72
2022/08/01 03:11:25;;;;;;;9.10;6.15;;;18.70;99.90;;;;;;5091907;28;20403;-72
2022/08/01 03:13:53;;;;;;;8.13;5.60;;;18.70;99.90;;;;;;5091006;28;20451;-72
2022/08/01 03:16:21;;;;;;;6.53;5.70;;;18.70;99.90;;;;;;5090167;28;20386;-72
2022/08/01 03:18:48;;;;;;;8.32;5.80;;;18.70;99.90;;;;;;5089334;28;20429;-74
2022/08/01 03:21:14;;;;;;;7.67;5.67;;;18.70;99.90;;;;;;5088881;28;20657;-73
2022/08/01 03:23:41;;;;;;;8.75;6.18;;;18.70;99.90;;;;;;5087985;28;20393;-72
2022/08/01 03:26:08;;;;;;;9.02;5.38;;;18.70;99.90;;;;;;5088665;28;20402;-73
2022/08/01 03:28:36;;;;;;;6.03;5.38;;;18.60;99.90;;;;;;5090001;28;20390;-72
2022/08/01 03:31:03;;;;;;;5.72;5.10;;;18.60;99.90;;;;;;5088610;28;20574;-73
2022/08/01 03:33:29;;;;;;;5.65;5.00;;;18.60;99.90;;;;;;5088853;28;20417;-72
2022/08/01 03:35:56;;;;;;;5.88;5.15;;;18.60;99.90;;;;;;5089512;28;20402;-72
2022/08/01 03:38:25;;;;;;;7.38;4.50;;;18.70;99.90;;;;;;5089859;28;20406;-73
2022/08/01 03:40:58;;;;;;;5.82;4.82;;;18.70;99.90;;;;;;5088167;28;20742;-73
2022/08/01 03:43:41;;;;;;;5.68;5.07;;;18.60;99.90;;;;;;5090764;28;20389;-73
2022/08/01 03:46:12;;;;;;;7.40;5.43;;;18.60;99.90;;;;;;5091873;28;20404;-73
2022/08/01 03:48:42;;;;;;;6.87;4.87;;;18.60;99.90;;;;;;5092570;28;20833;-72
2022/08/01 03:51:09;;;;;;;6.90;4.53;;;18.60;99.90;;;;;;5090695;28;20378;-73
2022/08/01 03:53:38;;;;;;;6.78;4.88;;;18.60;99.90;;;;;;5091672;28;20782;-73
2022/08/01 03:56:08;;;;;;;5.28;4.60;;;18.50;99.90;;;;;;5089782;28;20476;-72
2022/08/01 03:58:36;;;;;;;6.20;4.93;;;18.50;99.90;;;;;;5089753;28;20655;-72
2022/08/01 04:01:02;;;;;;;4.38;3.97;;;18.50;99.90;;;;;;5086318;28;20405;-73
2022/08/01 04:03:27;;;;;;;5.25;4.00;;;18.50;99.90;;;;;;5088327;28;20391;-73
2022/08/01 04:05:53;;;;;;;4.57;3.83;;;18.60;99.90;;;;;;5088470;28;20435;-73
2022/08/01 04:08:19;;;;;;;6.67;4.17;;;18.60;99.90;;;;;;5088461;28;20439;-72
2022/08/01 04:10:44;;;;;;;7.33;4.70;;;18.60;99.90;;;;;;5087678;28;20413;-73
2022/08/01 04:13:10;;;;;;;5.57;4.32;;;18.60;99.90;;;;;;5087842;28;20386;-72
2022/08/01 04:15:36;;;;;;;5.97;4.03;;;18.60;99.90;;;;;;5087115;28;20436;-73
2022/08/01 04:18:01;;;;;;;5.57;4.57;;;18.60;99.90;;;;;;5086451;28;20409;-72
2022/08/01 04:20:27;;;;;;;6.20;3.87;;;18.60;99.90;;;;;;5084674;28;20521;-73
2022/08/01 04:22:52;;;;;;;4.20;3.80;;;18.60;99.90;;;;;;5083891;28;20392;-72
2022/08/01 04:25:40;;;;;;;5.53;3.97;;;18.60;99.90;;;;;;5083377;28;20394;-72
2022/08/01 04:28:10;;;;;;;5.57;3.65;;;18.60;99.90;;;;;;5080228;28;20400;-73
2022/08/01 04:30:39;;;;;;;3.90;3.50;;;18.70;99.90;;;;;;5080219;28;20700;-72
2022/08/01 04:33:07;;;;;;;7.00;4.40;;;18.70;99.90;;;;;;5082316;28;20479;-72
2022/08/01 04:35:36;;;;;;;5.88;4.35;;;18.70;99.90;;;;;;5082303;28;20593;-72
2022/08/01 04:38:02;;;;;;;6.65;4.25;;;18.70;99.90;;;;;;5083339;28;21045;-72
2022/08/01 04:40:29;;;;;;;7.53;4.18;;;18.70;99.90;;;;;;5087096;28;20390;-72
2022/08/01 04:42:55;;;;;;;7.25;4.10;;;18.70;99.90;;;;;;5086391;28;20386;-72
2022/08/01 04:45:21;;;;;;;6.33;3.90;;;18.70;99.90;;;;;;5086173;28;20485;-72
2022/08/01 04:47:47;;;;;;;8.75;4.30;;;18.80;99.90;;;;;;5083939;28;20378;-72
2022/08/01 04:50:13;;;;;;;7.47;4.07;;;18.70;99.90;;;;;;5080448;28;20797;-72
2022/08/01 04:52:41;;;;;;;6.63;3.53;;;18.70;99.90;;;;;;5081095;28;20476;-71
2022/08/01 04:55:07;;;;;;;5.07;3.55;;;18.70;99.90;;;;;;5081167;28;20428;-71
2022/08/01 04:57:40;;;;;;;4.65;3.42;;;18.70;99.90;;;;;;5082280;28;20667;-71
2022/08/01 05:00:06;;;;;;;5.33;3.27;;;18.60;99.90;;;;;;5082160;28;20780;-72
2022/08/01 05:02:32;;;;;;;3.42;2.75;;;18.60;99.90;;;;;;5080374;28;20370;-72
2022/08/01 05:04:58;;;;;;;3.80;2.70;;;18.60;99.90;;;;;;5084421;28;20793;-72
2022/08/01 05:07:24;;;;;;;4.28;2.97;;;18.50;99.90;;;;;;5090486;28;20417;-71
2022/08/01 05:09:50;;;;;;;6.60;2.80;;;18.50;99.90;;;;;;5090147;28;20401;-71
2022/08/01 05:12:16;;;;;;;4.15;2.50;;;18.50;99.90;;;;;;5089941;28;20389;-71
2022/08/01 05:14:41;;;;;;;3.53;2.60;;;18.50;99.90;;;;;;5088087;28;20715;-72
2022/08/01 05:17:08;;;;;;;3.33;2.37;;;18.50;99.90;;;;;;5087836;28;20469;-71
2022/08/01 05:19:35;;;;;;;3.42;2.03;;;18.50;99.90;;;;;;5088508;28;20402;-72
2022/08/01 05:22:04;;;;;;;3.00;1.85;;;18.50;99.90;;;;;;5089172;28;20378;-72
2022/08/01 05:24:34;;;;;;;1.98;1.48;;;18.40;99.90;;;;;;5089128;28;20390;-71
2022/08/01 05:27:00;;;;;;;3.23;1.70;;;18.50;99.90;;;;;;5087788;28;20494;-71
2022/08/01 05:29:26;;;;;;;2.17;1.40;;;18.40;99.90;;;;;;5084268;28;20414;-72
2022/08/01 05:31:52;;;;;;;2.67;1.30;;;18.50;99.90;;;;;;5079528;28;20702;-74
2022/08/01 05:34:19;;;;;;;1.30;1.20;;;18.40;99.90;;;;;;5081435;28;20459;-73
2022/08/01 05:36:44;;;;;;;3.92;1.60;;;18.40;99.90;;;;;;5089485;28;20389;-73
2022/08/01 05:39:10;;;;;;;2.13;1.33;;;18.50;99.90;;;;;;5090968;28;20417;-73
2022/08/01 05:41:37;;;;;;;3.45;1.73;;;18.40;99.90;;;;;;5091814;28;20382;-73
2022/08/01 05:44:03;;;;;;;3.10;1.63;;;18.50;99.90;;;;;;5091112;28;20382;-73
2022/08/01 05:46:30;;;;;;;4.28;1.80;;;18.50;99.90;;;;;;5090753;28;20418;-73
2022/08/01 05:49:00;;;;;;;3.88;1.73;;;18.50;99.90;;;;;;5089228;28;20378;-73
2022/08/01 05:51:25;;;;;;;1.83;1.52;;;18.50;99.90;;;;;;5086848;28;20674;-73
2022/08/01 05:53:52;;;;;;;3.47;1.70;;;18.50;99.90;;;;;;5088467;28;20609;-73
2022/08/01 05:56:18;;;;;;;2.72;1.40;;;18.60;99.90;;;;;;5087327;28;20601;-73
2022/08/01 05:58:43;;;;;;;6.23;2.03;;;18.70;99.90;;;;;;5085010;28;20463;-73
2022/08/01 06:01:09;;;;;;;4.32;1.77;;;18.80;99.90;;;;;;5086039;28;20378;-73
2022/08/01 06:03:35;;;;;;;3.17;1.65;;;18.60;99.90;;;;;;5085321;28;20386;-73
2022/08/01 06:06:01;;;;;;;4.85;1.75;;;18.70;99.90;;;;;;5084359;28;20385;-73
2022/08/01 06:08:27;;;;;;;1.52;1.42;;;18.60;99.90;;;;;;5080561;28;20392;-73
2022/08/01 06:10:53;;;;;;;2.35;1.60;;;18.60;99.90;;;;;;5080041;28;20683;-72
2022/08/01 06:13:19;;;;;;;4.20;2.00;;;18.60;99.90;;;;;;5079096;28;20932;-72
2022/08/01 06:15:45;;;;;;;4.75;1.80;;;18.50;99.90;;;;;;5080698;28;20668;-72
2022/08/01 06:18:11;;;;;;;3.28;2.10;;;18.50;99.90;;;;;;5082016;28;20413;-72
2022/08/01 06:20:37;;;;;;;3.30;1.77;;;18.60;99.90;;;;;;5080589;28;20378;-72
2022/08/01 06:23:03;;;;;;;6.10;2.83;;;18.60;99.90;;;;;;5077250;28;20466;-73
2022/08/01 06:25:28;;;;;;;7.78;2.35;;;18.60;99.90;;;;;;5076268;28;20406;-73
2022/08/01 06:27:54;;;;;;;5.87;2.43;;;18.70;99.90;;;;;;5073997;28;20808;-73
2022/08/01 06:30:20;;;;;;;6.07;2.70;;;18.70;99.90;;;;;;5072557;28;20612;-73
2022/08/01 06:32:46;;;;;;;8.23;2.78;;;18.70;99.90;;;;;;5071386;28;20421;-73
2022/08/01 06:35:11;;;;;;;5.53;2.55;;;18.60;99.90;;;;;;5075749;28;20378;-73
2022/08/01 06:37:37;;;;;;;9.57;2.63;;;18.60;99.90;;;;;;5077513;28;20397;-73
2022/08/01 06:40:08;;;;;;;7.63;3.00;;;18.60;99.90;;;;;;5082215;28;20857;-72
2022/08/01 06:42:37;;;;;;;7.32;2.88;;;18.50;99.90;;;;;;5082941;28;20374;-72
2022/08/01 06:45:07;;;;;;;8.38;2.67;;;18.60;99.90;;;;;;5082275;28;20504;-71
2022/08/01 06:47:33;;;;;;;6.28;2.85;;;18.60;99.90;;;;;;5083521;28;20765;-72
2022/08/01 06:49:58;;;;;;;9.15;3.75;;;18.60;99.90;;;;;;5082472;28;20462;-72
2022/08/01 06:52:25;;;;;;;7.28;3.85;;;18.70;99.90;;;;;;5081221;28;20390;-71
2022/08/01 06:54:50;;;;;;;6.93;3.42;;;18.60;99.90;;;;;;5079644;28;20883;-72
2022/08/01 06:57:16;;;;;;;8.73;4.40;;;18.70;99.90;;;;;;5079581;28;20406;-72
2022/08/01 06:59:41;;;;;;;7.63;3.20;;;18.70;99.90;;;;;;5080440;28;20416;-72
2022/08/01 07:02:07;;;;;;;9.65;4.38;;;18.80;99.90;;;;;;5080760;28;20551;-71
2022/08/01 07:04:33;;;;;;;9.82;5.15;;;18.80;99.90;;;;;;5081629;28;20390;-71
2022/08/01 07:06:59;;;;;;;10.38;4.68;;;18.70;99.90;;;;;;5083440;28;20423;-71
2022/08/01 07:09:26;;;;;;;11.50;5.40;;;18.60;99.90;;;;;;5082744;28;20445;-72
2022/08/01 07:11:52;;;;;;;11.80;5.70;;;18.50;99.90;;;;;;5081573;28;20386;-72
2022/08/01 07:14:18;;;;;;;8.63;5.13;;;18.40;99.90;;;;;;5080828;28;20378;-72
2022/08/01 07:16:45;;;;;;;10.23;5.13;;;18.50;99.90;;;;;;5077484;28;20385;-72
2022/08/01 07:19:12;;;;;;;11.30;4.45;;;18.60;99.90;;;;;;5081549;28;20402;-72
2022/08/01 07:21:39;;;;;;;12.63;5.20;;;18.60;99.90;;;;;;5084559;28;20393;-72
2022/08/01 07:24:08;;;;;;;10.93;4.78;;;18.70;99.90;;;;;;5076974;28;20425;-71
2022/08/01 07:26:34;;;;;;;9.93;4.50;;;18.70;99.90;;;;;;5070508;28;20496;-72
2022/08/01 07:29:00;;;;;;;8.70;3.97;;;18.70;99.90;;;;;;5070967;28;20386;-72
2022/08/01 07:31:25;;;;;;;6.88;3.90;;;18.60;99.90;;;;;;5073782;28;20501;-73
2022/08/01 07:33:51;;;;;;;11.73;5.10;;;18.50;99.90;;;;;;5071467;28;20828;-73
2022/08/01 07:36:17;;;;;;;9.70;5.05;;;18.50;99.90;;;;;;5068970;28;20685;-74
2022/08/01 07:38:43;;;;;;;10.93;5.68;;;18.50;99.90;;;;;;5071947;28;20948;-74
2022/08/01 07:41:10;;;;;;;14.48;5.45;;;18.60;99.90;;;;;;5072021;28;20881;-71
2022/08/01 07:43:36;;;;;;;13.93;5.85;;;18.60;99.90;;;;;;5073427;28;20396;-72
2022/08/01 07:46:03;;;;;;;12.77;5.50;;;18.60;99.90;;;;;;5073375;28;20699;-71
2022/08/01 07:48:28;;;;;;;12.88;5.45;;;18.60;99.90;;;;;;5074839;28;20394;-72
2022/08/01 07:50:54;;;;;;;14.70;5.60;;;18.70;99.90;;;;;;5078782;28;20418;-71
2022/08/01 07:53:20;;;;;;;14.55;5.75;;;18.70;99.90;;;;;;5084774;28;20932;-71
2022/08/01 07:55:46;;;;;;;13.20;5.30;;;18.80;99.90;;;;;;5083580;28;20408;-74
2022/08/01 07:58:12;;;;;;;15.00;5.57;;;18.80;99.90;;;;;;5084758;28;20394;-73
2022/08/01 08:00:37;;;;;;;12.27;4.97;;;18.70;99.90;;;;;;5084396;28;20861;-71
2022/08/01 08:03:03;;;;;;;13.45;5.50;;;18.70;99.90;;;;;;5081976;28;20386;-74
2022/08/01 08:05:29;;;;;;;12.85;4.88;;;18.80;99.90;;;;;;5084720;28;20389;-72
2022/08/01 08:07:55;;;;;;;14.05;4.72;;;18.70;99.90;;;;;;5084116;28;20472;-72
2022/08/01 08:10:21;;;;;;;10.70;3.95;;;18.80;99.90;;;;;;5085845;28;20382;-74
2022/08/01 08:12:48;;;;;;;10.33;3.60;;;18.80;99.90;;;;;;5084351;28;20386;-74
2022/08/01 08:15:14;;;;;;;11.43;3.70;;;18.90;99.90;;;;;;5086633;28;20848;-74
2022/08/01 08:17:40;;;;;;;11.90;3.60;;;19.00;99.90;;;;;;5089152;28;21052;-72
2022/08/01 08:20:09;;;;;;;9.07;2.83;;;19.00;99.90;;;;;;5087036;28;20476;-71
2022/08/01 08:22:38;;;;;;;11.18;2.95;;;19.00;99.90;;;;;;5085362;28;20735;-72
2022/08/01 08:25:05;;;;;;;8.32;2.88;;;19.00;99.90;;;;;;5083527;28;20374;-71
2022/08/01 08:27:30;;;;;;;11.05;3.00;;;19.10;99.90;;;;;;5087555;28;20392;-72
2022/08/01 08:29:57;;;;;;;10.80;3.10;;;19.00;99.90;;;;;;5084260;28;20369;-71
2022/08/01 08:32:22;;;;;;;9.15;3.33;;;18.90;99.90;;;;;;5078597;28;20449;-71
2022/08/01 08:34:48;;;;;;;11.83;3.40;;;18.90;99.90;;;;;;5076745;28;20451;-71
2022/08/01 08:37:13;;;;;;;9.32;3.00;;;19.00;99.90;;;;;;5079302;28;20391;-71
2022/08/01 08:39:39;;;;;;;8.57;2.73;;;19.00;99.90;;;;;;5072004;28;21072;-71
2022/08/01 08:42:10;;;;;;;8.68;2.58;;;19.00;99.90;;;;;;5066202;28;20386;-71
2022/08/01 08:44:35;;;;;;;7.75;2.58;;;18.90;99.90;;;;;;5084080;28;20378;-72
2022/08/01 08:47:05;;;;;;;8.37;2.50;;;18.80;99.90;;;;;;5079969;28;20609;-71
2022/08/01 08:49:31;;;;;;;9.38;2.53;;;18.80;99.90;;;;;;5079326;28;20382;-72
2022/08/01 08:52:00;;;;;;;10.20;2.70;;;18.90;99.90;;;;;;5078778;28;20478;-71
2022/08/01 08:54:27;;;;;;;7.05;2.75;;;19.10;99.90;;;;;;5076741;28;20723;-71
2022/08/01 08:56:53;;;;;;;7.85;2.92;;;19.20;99.90;;;;;;5074216;28;20382;-72
2022/08/01 08:59:20;;;;;;;6.47;2.20;;;19.10;99.90;;;;;;5075497;28;20821;-72
2022/08/01 09:01:46;;;;;;;4.57;1.83;;;19.20;99.90;;;;;;5076114;28;20402;-71
2022/08/01 09:04:11;;;;;;;5.18;1.85;;;19.20;99.90;;;;;;5072243;28;20708;-72
2022/08/01 09:06:38;;;;;;;7.23;1.87;;;19.30;99.90;;;;;;5073975;28;20424;-72
2022/08/01 09:09:05;;;;;;;4.07;1.92;;;19.30;99.90;;;;;;5075303;28;20444;-73
2022/08/01 09:11:32;;;;;;;6.93;2.40;;;19.40;99.90;;;;;;5075446;28;20378;-72
2022/08/01 09:14:07;;;;;;;6.95;2.70;;;19.50;99.90;;;;;;5073360;28;20935;-72
2022/08/01 09:16:34;;;;;;;9.32;2.72;;;19.50;99.90;;;;;;5076607;28;20409;-72
2022/08/01 09:19:08;;;;;;;8.82;2.80;;;19.60;99.90;;;;;;5076824;28;20899;-72
2022/08/01 09:21:34;;;;;;;9.85;2.95;;;19.50;99.90;;;;;;5077596;28;20667;-72
2022/08/01 09:24:04;;;;;;;6.20;2.22;;;19.40;99.90;;;;;;5082907;28;20582;-71
2022/08/01 09:26:35;;;;;;;9.60;2.53;;;19.30;99.90;;;;;;5087724;28;20392;-72
2022/08/01 09:29:04;;;;;;;7.05;2.35;;;19.40;99.90;;;;;;5086050;28;20389;-71
2022/08/01 09:31:40;;;;;;;10.57;2.60;;;19.70;99.90;;;;;;5085428;28;20596;-72
2022/08/01 09:34:07;;;;;;;10.65;2.70;;;19.60;99.90;;;;;;5102940;28;20594;-72
2022/08/01 09:36:54;;;;;;;10.32;3.00;;;19.60;99.90;;;;;;5102131;28;20683;-72
2022/08/01 09:39:22;;;;;;;8.40;2.50;;;19.70;99.90;;;;;;5103521;28;21466;-72
2022/08/01 09:41:48;;;;;;;7.20;2.53;;;19.70;99.90;;;;;;5101651;28;20495;-73
2022/08/01 09:44:18;;;;;;;10.23;2.50;;;19.80;99.90;;;;;;5099512;28;20629;-72
2022/08/01 09:46:54;;;;;;;7.32;2.40;;;19.70;99.90;;;;;;5102216;28;20411;-71
2022/08/01 09:49:40;;;;;;;8.75;2.63;;;19.70;99.90;;;;;;5100850;28;20808;-73
2022/08/01 09:52:17;;;;;;;9.93;2.60;;;19.60;99.90;;;;;;5099520;28;20537;-72
2022/08/01 09:54:55;;;;;;;7.25;2.35;;;19.60;99.90;;;;;;5099562;28;20536;-72
2022/08/01 09:57:21;;;;;;;7.93;2.30;;;19.70;99.90;;;;;;5098361;28;20434;-72
2022/08/01 09:59:50;;;;;;;9.00;2.60;;;19.80;99.90;;;;;;5083263;28;20397;-73
2022/08/01 10:02:30;;;;;;;9.73;2.67;;;19.80;99.90;;;;;;5095023;28;20603;-73
2022/08/01 10:04:56;;;;;;;10.55;2.70;;;19.90;99.90;;;;;;5091728;28;20627;-72
2022/08/01 10:07:22;;;;;;;7.90;2.40;;;20.00;99.90;;;;;;5060420;28;20828;-72
2022/08/01 10:09:48;;;;;;;8.15;2.40;;;20.00;99.90;;;;;;5090890;28;20616;-72
2022/08/01 10:12:16;;;;;;;8.40;2.53;;;20.20;99.90;;;;;;5091767;28;20374;-72
2022/08/01 10:14:45;;;;;;;10.30;2.60;;;20.30;99.90;;;;;;5094210;28;20502;-72
2022/08/01 10:17:16;;;;;;;6.32;2.20;;;20.40;99.90;;;;;;5078138;28;20642;-72
2022/08/01 10:19:44;;;;;;;11.02;2.80;;;20.40;99.90;;;;;;5080304;28;20436;-71
2022/08/01 10:22:15;;;;;;;11.50;3.00;;;20.20;99.90;;;;;;5101443;28;20439;-71
2022/08/01 10:24:43;;;;;;;8.57;2.73;;;20.30;99.90;;;;;;5107243;28;20481;-71
2022/08/01 10:27:10;;;;;;;8.35;2.72;;;20.40;99.90;;;;;;5105294;28;20563;-71
2022/08/01 10:29:56;;;;;;;9.32;2.60;;;20.40;99.90;;;;;;5104281;28;20417;-71
2022/08/01 10:32:23;;;;;;;9.70;3.10;;;20.30;99.90;;;;;;5101372;27;21043;-71
2022/08/01 10:34:50;;;;;;;9.20;3.10;;;20.20;99.90;;;;;;5082965;28;20382;-71
2022/08/01 10:37:17;;;;;;;8.90;3.22;;;20.20;99.90;;;;;;5080976;28;20374;-71
2022/08/01 10:39:43;;;;;;;10.90;3.20;;;20.40;99.90;;;;;;5078091;28;20777;-71
2022/08/01 10:42:11;;;;;;;9.50;2.90;;;20.40;99.90;;;;;;5077338;28;20404;-71
2022/08/01 10:44:38;;;;;;;9.30;2.63;;;20.50;99.90;;;;;;5082943;28;20378;-71
2022/08/01 10:47:11;;;;;;;9.05;2.80;;;20.50;99.90;;;;;;5084747;28;20385;-71
2022/08/01 10:49:53;;;;;;;8.93;2.90;;;20.50;99.90;;;;;;5087552;28;20382;-71
2022/08/01 10:52:20;;;;;;;8.05;2.35;;;20.60;99.90;;;;;;5086909;28;20652;-73
2022/08/01 10:54:47;;;;;;;7.93;2.30;;;20.60;99.90;;;;;;5085777;28;20456;-71
2022/08/01 10:57:13;;;;;;;10.35;2.63;;;20.50;99.90;;;;;;5083164;28;20473;-71
2022/08/01 10:59:50;;;;;;;7.22;1.92;;;20.60;99.90;;;;;;5083078;28;20394;-71
2022/08/01 11:02:33;;;;;;;5.37;2.27;;;20.60;99.90;;;;;;5084747;28;20526;-71
2022/08/01 11:05:09;;;;;;;8.02;2.22;;;20.80;99.90;;;;;;5082921;28;20626;-71
2022/08/01 11:07:55;;;;;;;4.17;1.60;;;21.00;99.90;;;;;;5080425;28;20836;-71
2022/08/01 11:10:42;;;;;;;6.00;2.10;;;21.00;99.90;;;;;;5079078;28;20459;-74
2022/08/01 11:13:10;;;;;;;6.18;2.08;;;20.90;99.90;;;;;;5080156;28;20397;-71
2022/08/01 11:15:40;;;;;;;6.82;2.40;;;20.90;99.90;;;;;;5081130;28;20374;-63
2022/08/01 11:18:27;;;;;;;6.70;2.22;;;21.10;99.90;;;;;;5081650;28;20894;-63
2022/08/01 11:21:02;;;;;;;8.35;2.38;;;21.20;99.90;;;;;;5082612;28;20382;-64
2022/08/01 11:23:31;;;;;;;7.50;2.17;;;21.20;99.90;;;;;;5083999;28;20386;-64
2022/08/01 11:26:02;;;;;;;7.50;2.08;;;21.20;99.90;;;;;;5083623;28;20428;-64
2022/08/01 11:28:29;;;;;;;7.90;2.10;;;21.40;99.90;;;;;;5084353;28;20485;-64
2022/08/01 11:31:07;;;;;;;7.20;2.28;;;21.70;99.90;;;;;;5084287;28;20402;-64
2022/08/01 11:33:41;;;;;;;7.50;2.10;;;21.80;99.90;;;;;;5082283;28;20487;-64
2022/08/01 11:36:10;;;;;;;10.27;2.78;;;21.80;99.90;;;;;;5084254;28;20801;-64
2022/08/01 11:38:39;;;;;;;5.70;2.10;;;21.50;99.90;;;;;;5088450;28;20489;-64
2022/08/01 11:41:27;;;;;;;6.88;2.30;;;21.70;99.90;;;;;;5084890;28;20489;-64
2022/08/01 11:44:02;;;;;;;9.68;2.05;;;21.90;99.90;;;;;;5081038;28;20425;-64
2022/08/01 11:47:03;;;;;;;6.18;2.20;;;21.80;99.90;;;;;;5080129;28;20441;-64
2022/08/01 11:49:34;;;;;;;6.78;2.03;;;21.80;99.90;;;;;;5057442;28;20391;-65
2022/08/01 11:52:16;;;;;;;6.47;1.88;;;21.90;99.90;;;;;;5056931;28;20387;-65
2022/08/01 11:54:55;;;;;;;9.90;2.35;;;22.00;99.90;;;;;;5059169;28;20437;-65
2022/08/01 11:57:27;;;;;;;6.88;2.25;;;21.90;99.90;;;;;;5058237;28;20471;-65
2022/08/01 11:59:58;;;;;;;6.78;1.92;;;22.10;99.90;;;;;;5055047;28;20479;-65
2022/08/01 12:02:26;;;;;;;6.60;2.15;;;22.20;99.90;;;;;;5053971;28;20399;-65
2022/08/01 12:05:02;;;;;;;7.57;2.22;;;22.30;99.90;;;;;;5056479;28;20379;-65
2022/08/01 12:07:29;;;;;;;8.48;1.80;;;22.40;99.90;;;;;;5057274;28;20407;-65
2022/08/01 12:10:03;;;;;;;6.63;1.85;;;22.50;99.90;;;;;;5057737;28;20823;-65
2022/08/01 12:12:29;;;;;;;5.93;1.80;;;22.60;99.90;;;;;;5058401;28;20449;-65
2022/08/01 12:14:58;;;;;;;9.70;1.87;;;22.90;99.90;;;;;;5061362;28;20380;-73
2022/08/01 12:17:36;;;;;;;6.50;1.80;;;22.70;99.90;;;;;;5063205;28;20807;-72
2022/08/01 12:20:04;;;;;;;6.45;2.00;;;22.80;99.90;;;;;;5063304;28;20520;-73
2022/08/01 12:22:31;;;;;;;5.00;1.85;;;23.00;99.90;;;;;;5062652;28;20387;-72
2022/08/01 12:25:08;;;;;;;6.87;1.80;;;23.30;99.90;;;;;;5066662;28;20396;-73
2022/08/01 12:27:35;;;;;;;6.68;1.90;;;23.40;99.90;;;;;;5068502;28;20375;-72
2022/08/01 12:30:01;;;;;;;6.03;1.88;;;23.40;99.90;;;;;;5067013;28;20413;-72
2022/08/01 12:32:35;;;;;;;5.85;1.70;;;23.50;99.90;;;;;;5065828;28;20414;-72
2022/08/01 12:35:16;;;;;;;6.47;1.97;;;23.80;99.90;;;;;;5065019;28;20673;-73
2022/08/01 12:37:47;;;;;;;5.38;1.85;;;23.60;99.90;;;;;;5056679;28;20778;-71
2022/08/01 12:40:17;;;;;;;3.87;1.50;;;23.60;99.90;;;;;;5055911;28;20481;-72
2022/08/01 12:42:45;;;;;;;5.47;1.90;;;23.70;99.90;;;;;;5055230;28;20600;-71
2022/08/01 12:45:14;;;;;;;5.68;1.60;;;24.10;99.90;;;;;;5053842;28;20825;-71
2022/08/01 12:47:42;;;;;;;4.37;1.70;;;24.20;99.90;;;;;;5054928;28;20395;-71
2022/08/01 12:50:30;;;;;;;5.47;1.75;;;24.10;99.90;;;;;;5053303;28;20444;-71
2022/08/01 12:52:58;;;;;;;8.23;1.98;;;24.20;99.90;;;;;;5070333;28;20486;-72
2022/08/01 12:55:25;;;;;;;8.10;1.77;;;24.20;99.90;;;;;;5058813;28;20756;-72